Time;durP1;ratioP1;P1;durP2;ratioP2;P2;SDS_P1;SDS_P2;PMS_P1;PMS_P2;Temp;Humidity;BMP_temperature;BMP_pressure;BME280_temperature;BME280_humidity;BME280_pressure;Samples;Min_cycle;Max_cycle;Signal;HPM_P1;HPM_P2
2022/05/17 03:52:53;;;;;;;12.23;3.20;;;18.10;69.50;;;;;;4892331;23;20052;-80
2022/05/17 03:55:19;;;;;;;8.80;2.70;;;18.20;69.70;;;;;;4914575;29;20425;-79
2022/05/17 03:57:44;;;;;;;8.75;2.90;;;18.20;69.70;;;;;;4899945;29;20135;-77
2022/05/17 04:00:11;;;;;;;9.18;2.63;;;18.30;69.60;;;;;;4899895;29;20048;-78
2022/05/17 04:02:37;;;;;;;9.20;2.80;;;18.30;69.60;;;;;;4883604;29;20052;-79
2022/05/17 04:05:03;;;;;;;11.27;3.85;;;18.40;69.70;;;;;;4914950;29;20059;-79
2022/05/17 04:07:31;;;;;;;7.45;2.50;;;18.40;69.70;;;;;;4898993;29;20059;-80
2022/05/17 04:09:57;;;;;;;9.57;2.85;;;18.50;69.80;;;;;;4900363;29;20048;-74
2022/05/17 04:12:22;;;;;;;6.43;1.95;;;18.50;70.20;;;;;;4918900;29;20062;-77
2022/05/17 04:14:48;;;;;;;9.02;2.70;;;18.60;70.30;;;;;;4910153;29;20468;-78
2022/05/17 04:17:14;;;;;;;7.82;2.33;;;18.60;70.50;;;;;;4898754;29;20083;-74
2022/05/17 04:19:40;;;;;;;9.85;3.03;;;18.70;71.10;;;;;;4899575;29;20058;-75
2022/05/17 04:22:15;;;;;;;7.43;2.22;;;18.70;71.20;;;;;;4899552;29;20045;-78
2022/05/17 04:25:15;;;;;;;7.35;3.33;;;18.80;71.50;;;;;;4883901;29;20453;-89
2022/05/17 04:27:50;;;;;;;14.23;4.00;;;18.90;72.00;;;;;;4930190;29;20051;-85
2022/05/17 04:30:21;;;;;;;10.68;4.13;;;18.90;72.80;;;;;;4898990;29;20053;-82
2022/05/17 04:32:47;;;;;;;9.30;3.28;;;18.90;72.10;;;;;;4914222;29;20052;-83
2022/05/17 04:35:24;;;;;;;9.88;3.25;;;19.00;73.10;;;;;;4883967;29;20052;-82
2022/05/17 04:37:53;;;;;;;7.10;2.72;;;19.00;73.50;;;;;;4896649;29;20070;-81
2022/05/17 04:40:19;;;;;;;20.42;3.83;;;19.00;73.70;;;;;;4918419;29;20465;-84
2022/05/17 04:42:47;;;;;;;9.13;2.72;;;19.10;72.70;;;;;;4918213;29;20084;-82
2022/05/17 04:45:15;;;;;;;12.43;2.63;;;19.10;72.70;;;;;;4888524;29;20060;-85
2022/05/17 04:47:42;;;;;;;9.40;2.83;;;19.10;72.80;;;;;;4913526;29;20044;-81
2022/05/17 04:50:13;;;;;;;9.13;2.60;;;19.10;72.90;;;;;;4921210;29;20123;-83
2022/05/17 04:52:38;;;;;;;9.98;2.75;;;19.10;73.30;;;;;;4886376;29;20056;-81
2022/05/17 04:55:09;;;;;;;11.30;2.50;;;19.20;73.40;;;;;;4902916;29;20372;-80
2022/05/17 04:57:38;;;;;;;14.30;3.45;;;19.20;71.80;;;;;;4898430;29;20029;-86
2022/05/17 05:00:10;;;;;;;9.35;2.58;;;19.20;71.60;;;;;;4884580;29;20037;-81
2022/05/17 05:02:36;;;;;;;22.60;3.67;;;19.20;71.60;;;;;;4885517;29;20045;-79
2022/05/17 05:05:04;;;;;;;14.80;3.13;;;19.20;71.20;;;;;;4884497;29;20049;-80
2022/05/17 05:07:30;;;;;;;9.77;3.03;;;19.20;71.00;;;;;;4914754;29;20044;-80
2022/05/17 05:09:55;;;;;;;12.52;2.45;;;19.20;71.30;;;;;;4914370;29;20055;-82
2022/05/17 05:12:21;;;;;;;10.35;2.17;;;19.20;71.40;;;;;;4898789;29;20079;-80
2022/05/17 05:14:47;;;;;;;9.38;2.58;;;19.30;71.60;;;;;;4883366;29;20121;-83
2022/05/17 05:17:12;;;;;;;10.75;2.42;;;19.30;71.50;;;;;;4911725;29;20040;-80
2022/05/17 05:19:38;;;;;;;11.75;2.25;;;19.30;71.50;;;;;;4902682;29;20127;-82
2022/05/17 05:22:04;;;;;;;10.40;2.28;;;19.30;71.60;;;;;;4900961;29;20135;-72
2022/05/17 05:24:31;;;;;;;13.38;2.53;;;19.30;71.80;;;;;;4900609;29;20373;-80
2022/05/17 05:27:03;;;;;;;15.70;2.90;;;19.40;71.70;;;;;;4902554;29;20418;-83
2022/05/17 05:29:29;;;;;;;16.38;2.80;;;19.40;71.60;;;;;;4902626;29;20064;-80
2022/05/17 05:31:55;;;;;;;12.80;2.95;;;19.30;72.00;;;;;;4888758;29;20045;-80
2022/05/17 05:34:21;;;;;;;12.10;3.55;;;19.40;71.60;;;;;;4914157;29;20147;-86
2022/05/17 05:37:03;;;;;;;17.40;4.07;;;19.40;70.60;;;;;;4883764;29;20370;-87
2022/05/17 05:39:32;;;;;;;14.27;3.53;;;19.40;69.90;;;;;;4883202;29;20055;-81
2022/05/17 05:42:08;;;;;;;18.25;3.70;;;19.30;69.90;;;;;;4914173;29;20041;-77
2022/05/17 05:44:34;;;;;;;8.57;2.63;;;19.30;70.10;;;;;;4886066;29;20056;-83
2022/05/17 05:47:00;;;;;;;13.10;3.20;;;19.30;70.30;;;;;;4913713;29;20456;-83
2022/05/17 05:49:26;;;;;;;12.70;3.78;;;19.30;71.10;;;;;;4883986;29;20044;-82
2022/05/17 05:51:51;;;;;;;15.15;3.85;;;19.30;70.10;;;;;;4898501;29;20036;-85
2022/05/17 05:54:20;;;;;;;10.82;3.55;;;19.30;70.00;;;;;;4917748;29;20358;-84
2022/05/17 05:56:45;;;;;;;16.30;3.08;;;19.30;70.10;;;;;;4901963;29;20040;-84
2022/05/17 05:59:12;;;;;;;12.27;3.63;;;19.20;70.20;;;;;;4926696;29;20492;-80
2022/05/17 06:01:39;;;;;;;13.02;3.00;;;19.30;70.50;;;;;;4903189;29;20123;-79
2022/05/17 06:04:08;;;;;;;15.48;3.28;;;19.30;70.80;;;;;;4900832;29;20080;-80
2022/05/17 06:06:35;;;;;;;26.48;3.55;;;19.40;71.50;;;;;;4902167;29;20318;-81
2022/05/17 06:09:01;;;;;;;27.00;4.80;;;19.40;71.30;;;;;;4902310;29;20068;-83
2022/05/17 06:11:27;;;;;;;16.75;3.60;;;19.40;71.20;;;;;;4901965;29;20066;-79
2022/05/17 06:14:29;;;;;;;22.33;3.88;;;19.50;71.00;;;;;;4901973;29;20045;-87
2022/05/17 06:37:38;;;;;;;10.60;3.07;;;19.60;70.10;;;;;;4825130;29;20141;-85
2022/05/17 06:39:51;;;;;;;10.85;2.50;;;19.70;70.10;;;;;;4826519;29;20056;-86
2022/05/17 06:42:22;;;;;;;13.20;3.28;;;19.70;70.00;;;;;;4897433;29;20044;-84
2022/05/17 06:44:48;;;;;;;10.48;2.95;;;19.70;70.00;;;;;;4884547;29;20143;-80
2022/05/17 06:52:09;;;;;;;13.85;3.17;;;19.80;70.20;;;;;;4824144;29;20053;-86
2022/05/17 06:55:12;;;;;;;11.90;2.88;;;19.80;69.90;;;;;;4800547;29;20055;-86
2022/05/17 07:09:04;;;;;;;12.07;2.85;;;19.90;69.70;;;;;;4806387;29;20472;-86
2022/05/17 07:48:48;;;;;;;6.22;1.90;;;20.10;69.10;;;;;;5269111;24;20600;-85
2022/05/17 08:28:58;;;;;;;7.05;2.03;;;20.40;68.80;;;;;;4981322;23;20059;-79
2022/05/17 08:31:24;;;;;;;7.70;1.30;;;20.40;68.70;;;;;;4924948;29;20075;-79
2022/05/17 08:33:50;;;;;;;7.72;1.90;;;20.40;68.60;;;;;;4907994;29;20060;-77
2022/05/17 08:36:17;;;;;;;5.75;1.67;;;20.40;68.60;;;;;;4908236;29;20055;-77
2022/05/17 08:38:49;;;;;;;11.55;2.17;;;20.40;68.60;;;;;;4925051;29;20043;-77
2022/05/17 08:41:45;;;;;;;5.93;1.70;;;20.50;68.60;;;;;;4925121;29;20051;-78
2022/05/17 08:45:06;;;;;;;6.15;1.63;;;20.50;68.60;;;;;;4924526;29;20055;-87
2022/05/17 08:47:49;;;;;;;3.90;1.33;;;20.50;68.60;;;;;;4812546;29;20392;-86
2022/05/17 08:50:19;;;;;;;7.30;1.73;;;20.50;68.50;;;;;;4907926;29;20060;-84
2022/05/17 08:52:48;;;;;;;6.03;2.28;;;20.50;68.40;;;;;;4892419;29;20479;-88
2022/05/17 08:55:28;;;;;;;7.28;1.58;;;20.50;68.30;;;;;;4892395;29;20103;-87
2022/05/17 08:58:40;;;;;;;7.95;1.92;;;20.60;68.40;;;;;;4892020;29;20040;-86
2022/05/17 10:44:37;;;;;;;4.10;0.90;;;20.90;65.60;;;;;;4897483;29;20043;-81
2022/05/17 10:47:13;;;;;;;4.75;1.60;;;20.80;65.70;;;;;;4884631;29;20127;-86
2022/05/17 10:49:58;;;;;;;3.33;1.25;;;20.80;65.60;;;;;;4884563;29;20456;-86
2022/05/17 10:53:04;;;;;;;5.22;1.58;;;20.80;65.40;;;;;;4884819;29;20036;-86
2022/05/17 10:56:07;;;;;;;5.97;1.38;;;20.80;65.50;;;;;;4883971;29;20500;-87
2022/05/17 10:58:49;;;;;;;3.72;0.73;;;20.90;65.70;;;;;;4884316;29;20036;-84
2022/05/17 11:05:26;;;;;;;10.05;1.73;;;20.90;65.90;;;;;;4918979;29;20478;-83
2022/05/17 11:14:48;;;;;;;11.32;1.58;;;20.80;66.10;;;;;;5067234;23;20072;-86
2022/05/17 11:17:30;;;;;;;4.50;1.08;;;20.80;66.00;;;;;;4883885;29;20369;-85
2022/05/17 11:20:06;;;;;;;7.38;1.38;;;20.80;65.90;;;;;;4883653;29;20060;-85
2022/05/17 11:23:12;;;;;;;6.53;1.30;;;20.90;65.90;;;;;;4866878;29;20043;-87
2022/05/17 11:26:16;;;;;;;7.05;1.27;;;20.90;65.80;;;;;;4869268;29;20072;-85
2022/05/17 11:28:50;;;;;;;3.30;0.75;;;20.80;65.90;;;;;;4843790;29;20135;-84
2022/05/17 11:31:37;;;;;;;4.90;0.95;;;20.80;65.80;;;;;;4899171;29;20083;-87
2022/05/17 11:34:22;;;;;;;5.90;1.02;;;20.90;65.80;;;;;;4883671;29;20044;-86
2022/05/17 11:36:49;;;;;;;5.93;1.45;;;20.90;65.70;;;;;;4884160;29;20339;-84
2022/05/17 11:39:47;;;;;;;4.05;0.90;;;20.90;65.60;;;;;;4884307;29;20041;-85
2022/05/17 11:42:36;;;;;;;5.45;1.20;;;20.90;65.40;;;;;;4868277;29;20373;-85
2022/05/17 11:45:24;;;;;;;4.85;1.02;;;20.90;65.50;;;;;;4868125;29;20056;-83
2022/05/17 11:47:58;;;;;;;5.47;0.88;;;20.90;65.40;;;;;;4868796;29;20060;-85
2022/05/17 11:50:30;;;;;;;;;;;20.90;65.40;;;;;;4883919;29;20048;-85
2022/05/17 11:53:25;;;;;;;3.83;1.00;;;20.80;65.40;;;;;;4883676;29;19978;-84
2022/05/17 11:56:24;;;;;;;3.58;0.82;;;20.80;65.30;;;;;;4867264;29;20040;-85
2022/05/17 11:58:55;;;;;;;5.55;1.00;;;20.90;65.30;;;;;;4883551;29;20036;-83
2022/05/17 12:01:29;;;;;;;4.75;1.10;;;20.80;65.30;;;;;;4862305;29;20049;-84
2022/05/17 12:04:21;;;;;;;3.22;0.85;;;20.80;65.20;;;;;;4864406;29;20101;-85
2022/05/17 12:06:53;;;;;;;6.72;1.10;;;20.90;65.30;;;;;;4879905;29;20055;-85
2022/05/17 12:10:00;;;;;;;4.57;1.10;;;20.90;65.00;;;;;;4849318;29;20049;-85
2022/05/17 12:13:06;;;;;;;4.53;0.73;;;20.80;62.60;;;;;;4881513;29;20041;-81
2022/05/17 12:20:12;;;;;;;7.30;1.13;;;20.80;63.30;;;;;;4866908;29;20104;-86
2022/05/17 12:23:05;;;;;;;7.53;1.60;;;20.80;61.10;;;;;;4864522;29;20100;-85
2022/05/17 12:25:50;;;;;;;5.70;1.02;;;20.80;59.70;;;;;;4849132;29;20048;-84
2022/05/17 12:28:52;;;;;;;4.30;0.88;;;20.70;58.50;;;;;;4866329;29;20108;-84
2022/05/17 12:31:25;;;;;;;4.30;0.80;;;20.70;60.00;;;;;;4883200;29;20111;-78
2022/05/17 12:34:04;;;;;;;4.30;1.15;;;20.70;60.50;;;;;;4882204;29;20056;-81
2022/05/17 12:36:32;;;;;;;5.88;1.05;;;20.70;60.50;;;;;;4893003;29;20042;-82
2022/05/17 12:44:47;;;;;;;6.30;1.27;;;20.80;60.60;;;;;;4898881;29;20045;-84
2022/05/17 12:47:18;;;;;;;4.25;0.90;;;20.80;60.90;;;;;;4883320;29;20049;-86
2022/05/17 12:49:45;;;;;;;5.05;1.10;;;20.80;60.90;;;;;;4898749;29;20076;-85
2022/05/17 12:52:34;;;;;;;3.10;0.68;;;20.80;61.00;;;;;;4883314;29;20084;-83
2022/05/17 12:55:32;;;;;;;3.30;0.68;;;20.80;61.20;;;;;;4882859;29;20123;-83
2022/05/17 12:58:10;;;;;;;3.53;0.85;;;20.80;61.40;;;;;;4862470;29;20056;-83
2022/05/17 13:00:37;;;;;;;10.23;1.17;;;20.80;61.50;;;;;;4898603;29;20047;-76
2022/05/17 13:03:24;;;;;;;6.82;1.33;;;20.90;61.90;;;;;;4897803;29;20049;-82
2022/05/17 13:05:53;;;;;;;5.13;1.00;;;20.80;62.00;;;;;;4898298;29;20072;-85
2022/05/17 13:08:27;;;;;;;8.90;1.40;;;20.80;61.60;;;;;;4900775;29;20149;-79
2022/05/17 13:11:05;;;;;;;12.70;2.22;;;20.90;62.20;;;;;;4902933;29;20048;-79
2022/05/17 13:13:33;;;;;;;9.63;2.03;;;20.90;62.90;;;;;;4899124;29;20051;-76
2022/05/17 13:16:13;;;;;;;12.05;1.95;;;20.90;63.30;;;;;;4903075;29;20069;-78
2022/05/17 13:18:45;;;;;;;8.55;1.33;;;20.90;63.70;;;;;;4902795;29;20129;-80
2022/05/17 13:21:28;;;;;;;11.20;2.58;;;20.90;63.70;;;;;;4900651;29;20064;-80
2022/05/17 13:23:58;;;;;;;14.45;1.98;;;21.00;64.00;;;;;;4906616;29;20044;-77
2022/05/17 13:26:31;;;;;;;7.95;1.95;;;20.90;63.60;;;;;;4898485;29;20067;-83
2022/05/17 13:29:18;;;;;;;;;;;20.90;64.10;;;;;;4887067;29;20049;-79
2022/05/17 13:31:45;;;;;;;9.30;1.65;;;20.90;64.10;;;;;;4885987;29;20363;-82
2022/05/17 13:34:17;;;;;;;8.30;1.50;;;20.90;64.40;;;;;;4902596;29;20056;-80
2022/05/17 13:36:43;;;;;;;12.63;2.25;;;21.00;64.30;;;;;;4901669;29;20045;-79
2022/05/17 13:39:25;;;;;;;7.32;1.58;;;21.00;64.30;;;;;;4902590;29;20056;-79
2022/05/17 13:41:51;;;;;;;8.57;1.45;;;21.00;63.90;;;;;;4902531;29;20124;-80
2022/05/17 13:44:32;;;;;;;8.55;1.38;;;21.00;63.90;;;;;;4902400;29;20052;-79
2022/05/17 13:47:04;;;;;;;8.23;1.55;;;21.00;61.40;;;;;;4902204;29;20147;-80
2022/05/17 13:49:40;;;;;;;7.73;1.30;;;21.10;59.80;;;;;;4902381;29;20132;-80
2022/05/17 13:52:35;;;;;;;8.20;1.17;;;21.10;59.20;;;;;;4902314;29;20312;-79
2022/05/17 13:55:24;;;;;;;3.78;1.08;;;21.10;59.30;;;;;;4901849;29;20149;-79
2022/05/17 13:57:54;;;;;;;6.88;1.67;;;21.10;60.30;;;;;;4902213;29;20357;-79
2022/05/17 14:00:33;;;;;;;7.90;1.02;;;21.10;60.20;;;;;;4902156;29;20048;-79
2022/05/17 14:03:02;;;;;;;6.25;1.10;;;21.10;60.00;;;;;;4901941;29;20091;-81
2022/05/17 14:05:54;;;;;;;5.15;1.52;;;21.10;60.40;;;;;;4885737;29;20056;-75
2022/05/17 14:11:49;;;;;;;4.47;1.52;;;21.00;61.10;;;;;;4901406;29;20123;-79
2022/05/17 14:14:20;;;;;;;6.82;1.23;;;21.10;61.70;;;;;;4881922;29;20061;-81
2022/05/17 14:17:01;;;;;;;19.70;11.00;;;21.00;62.00;;;;;;4889635;29;20135;-82
2022/05/17 14:19:32;;;;;;;24.40;14.38;;;21.10;62.90;;;;;;4884284;29;20144;-77
2022/05/17 14:22:01;;;;;;;13.15;6.53;;;21.10;63.70;;;;;;4885216;29;20080;-76
2022/05/17 14:24:27;;;;;;;17.23;10.23;;;21.10;63.80;;;;;;4901740;29;20049;-83
2022/05/17 14:26:55;;;;;;;16.98;9.05;;;21.10;64.40;;;;;;4897764;29;20349;-81
2022/05/17 14:29:34;;;;;;;12.20;8.15;;;21.20;64.70;;;;;;4895839;29;20335;-82
2022/05/17 14:32:13;;;;;;;20.23;9.20;;;21.20;65.60;;;;;;4885200;29;20036;-83
2022/05/17 14:34:40;;;;;;;17.38;8.02;;;21.20;64.90;;;;;;4900939;29;20427;-79
2022/05/17 14:37:15;;;;;;;11.35;5.32;;;21.20;65.10;;;;;;4897918;29;20041;-85
2022/05/17 14:39:44;;;;;;;11.30;4.22;;;21.20;64.40;;;;;;4901239;29;20048;-83
2022/05/17 14:42:13;;;;;;;7.65;3.17;;;21.30;62.60;;;;;;4893896;29;20148;-83
2022/05/17 14:44:39;;;;;;;6.68;2.00;;;21.40;62.10;;;;;;4884732;29;20131;-84
2022/05/17 14:47:11;;;;;;;11.43;3.10;;;21.40;60.90;;;;;;4869228;29;20037;-79
2022/05/17 14:49:38;;;;;;;10.63;3.05;;;21.50;61.30;;;;;;4901054;29;20044;-78
2022/05/17 14:52:06;;;;;;;9.68;2.90;;;21.50;61.80;;;;;;4901068;29;20036;-80
2022/05/17 14:54:32;;;;;;;9.77;3.45;;;21.40;62.10;;;;;;4901209;29;20045;-80
2022/05/17 14:56:57;;;;;;;9.10;2.65;;;21.40;62.70;;;;;;4884814;29;20130;-78
2022/05/17 14:59:23;;;;;;;14.45;3.90;;;21.40;62.90;;;;;;4898473;29;20053;-80
2022/05/17 15:01:51;;;;;;;8.85;2.70;;;21.40;63.50;;;;;;4900993;29;20052;-78
2022/05/17 15:04:21;;;;;;;14.05;3.20;;;21.40;63.50;;;;;;4900534;29;20141;-77
2022/05/17 15:06:53;;;;;;;12.95;3.65;;;21.40;63.70;;;;;;4884225;29;20080;-80
2022/05/17 15:09:22;;;;;;;16.88;3.80;;;21.40;63.70;;;;;;4900708;29;20049;-77
2022/05/17 15:11:48;;;;;;;9.95;2.42;;;21.40;63.90;;;;;;4884909;29;20056;-77
2022/05/17 15:14:14;;;;;;;12.93;2.22;;;21.40;63.80;;;;;;4901623;29;20112;-78
2022/05/17 15:16:41;;;;;;;9.88;2.70;;;21.40;63.60;;;;;;4901089;29;20389;-76
2022/05/17 15:19:11;;;;;;;9.70;2.17;;;21.40;63.20;;;;;;4900447;29;20056;-78
2022/05/17 15:21:38;;;;;;;12.25;2.45;;;21.40;63.80;;;;;;4900623;29;20060;-79
2022/05/17 15:24:04;;;;;;;12.40;1.88;;;21.40;63.20;;;;;;4900803;29;20060;-79
2022/05/17 15:26:30;;;;;;;8.80;2.10;;;21.40;63.00;;;;;;4899902;29;20492;-80
2022/05/17 15:29:01;;;;;;;12.02;2.53;;;21.40;63.00;;;;;;4884085;29;20052;-79
2022/05/17 15:31:27;;;;;;;11.65;2.13;;;21.40;63.10;;;;;;4868135;29;20048;-78
2022/05/17 15:33:53;;;;;;;9.75;2.22;;;21.50;63.00;;;;;;4900368;29;20176;-80
2022/05/17 15:36:18;;;;;;;7.35;1.88;;;21.50;63.00;;;;;;4900414;29;20135;-78
2022/05/17 15:38:44;;;;;;;8.98;2.33;;;21.50;63.30;;;;;;4900041;29;20063;-79
2022/05/17 15:41:11;;;;;;;9.00;2.75;;;21.50;63.30;;;;;;4900622;29;20056;-81
2022/05/17 15:43:37;;;;;;;14.48;2.15;;;21.50;63.60;;;;;;4900650;29;20056;-78
2022/05/17 15:46:06;;;;;;;8.05;2.33;;;21.40;64.00;;;;;;4883716;29;20052;-79
2022/05/17 15:54:05;;;;;;;10.57;2.88;;;21.40;63.80;;;;;;4899773;29;20052;-80
2022/05/17 15:56:30;;;;;;;9.07;2.42;;;21.40;64.10;;;;;;4899176;29;20052;-77
2022/05/17 15:58:56;;;;;;;9.68;2.17;;;21.40;64.10;;;;;;4899246;29;20135;-78
2022/05/17 16:01:25;;;;;;;12.32;2.28;;;21.40;64.30;;;;;;4897932;29;20048;-78
2022/05/17 16:06:47;;;;;;;7.27;1.60;;;21.40;64.10;;;;;;4883054;29;20056;-77
2022/05/17 16:09:14;;;;;;;7.95;1.67;;;21.40;64.10;;;;;;4899920;29;20083;-78
2022/05/17 16:11:47;;;;;;;11.25;2.72;;;21.40;64.10;;;;;;4899915;29;20052;-76
2022/05/17 16:14:15;;;;;;;6.53;1.73;;;21.40;64.50;;;;;;4883674;29;20108;-78
2022/05/17 16:16:41;;;;;;;7.00;1.30;;;21.40;64.30;;;;;;4900087;29;20072;-77
2022/05/17 16:19:07;;;;;;;9.50;2.10;;;21.40;64.30;;;;;;4900202;29;20052;-78
2022/05/17 16:21:33;;;;;;;8.77;1.90;;;21.40;64.30;;;;;;4899581;29;20123;-78
2022/05/17 16:24:00;;;;;;;7.57;1.50;;;21.40;64.30;;;;;;4883878;29;20462;-77
2022/05/17 16:26:25;;;;;;;6.93;1.98;;;21.40;64.40;;;;;;4883794;29;20123;-77
2022/05/17 16:28:51;;;;;;;8.27;2.03;;;21.40;64.50;;;;;;4899980;29;20177;-76
2022/05/17 16:31:18;;;;;;;7.78;1.90;;;21.40;64.60;;;;;;4899633;29;20084;-78
2022/05/17 16:33:45;;;;;;;13.68;2.63;;;21.40;64.90;;;;;;4899207;29;20537;-77
2022/05/17 16:36:11;;;;;;;7.40;1.85;;;21.40;65.00;;;;;;4899597;29;20056;-77
2022/05/17 16:38:38;;;;;;;11.10;2.30;;;21.50;65.20;;;;;;4899727;29;20036;-77
2022/05/17 16:41:06;;;;;;;7.63;2.08;;;21.50;65.30;;;;;;4883326;29;20121;-78
2022/05/17 16:43:33;;;;;;;9.93;1.90;;;21.50;65.40;;;;;;4886070;29;20052;-77
2022/05/17 16:46:00;;;;;;;13.70;2.65;;;21.50;65.40;;;;;;4903561;29;20131;-76
2022/05/17 16:48:26;;;;;;;14.73;3.03;;;21.50;65.40;;;;;;4903361;29;20037;-75
2022/05/17 16:50:53;;;;;;;14.20;2.65;;;21.50;65.40;;;;;;4903248;29;20464;-77
2022/05/17 16:53:19;;;;;;;12.55;3.13;;;21.50;65.40;;;;;;4903495;29;20133;-76
2022/05/17 16:55:45;;;;;;;10.13;2.47;;;21.50;65.30;;;;;;4903667;29;20152;-77
2022/05/17 16:58:12;;;;;;;18.50;2.47;;;21.60;65.40;;;;;;4903411;29;20462;-77
2022/05/17 17:00:39;;;;;;;11.70;3.15;;;21.60;65.30;;;;;;4903275;29;20049;-76
2022/05/17 17:03:09;;;;;;;11.25;2.00;;;21.60;65.10;;;;;;4886860;29;20048;-78
2022/05/17 17:05:35;;;;;;;9.07;1.90;;;21.60;64.90;;;;;;4903612;29;20062;-76
2022/05/17 17:08:02;;;;;;;8.73;2.08;;;21.60;64.90;;;;;;4903387;29;20132;-76
2022/05/17 17:10:30;;;;;;;10.05;2.60;;;21.60;64.80;;;;;;4903190;29;20108;-77
2022/05/17 17:12:56;;;;;;;6.63;1.73;;;21.60;64.80;;;;;;4903248;29;20386;-76
2022/05/17 17:15:23;;;;;;;11.35;1.90;;;21.70;64.70;;;;;;4903265;29;20132;-75
2022/05/17 17:17:49;;;;;;;9.43;2.10;;;21.70;64.80;;;;;;4903305;29;20064;-75
2022/05/17 17:20:22;;;;;;;11.38;1.50;;;21.70;64.70;;;;;;4902817;29;20053;-76
2022/05/17 17:22:48;;;;;;;9.00;1.50;;;21.70;64.60;;;;;;4903020;29;20087;-75
2022/05/17 17:25:14;;;;;;;10.25;2.28;;;21.70;64.20;;;;;;4887226;29;20462;-76
2022/05/17 17:27:42;;;;;;;6.30;1.40;;;21.70;64.10;;;;;;4903097;29;20052;-76
2022/05/17 17:30:10;;;;;;;6.03;1.50;;;21.70;63.90;;;;;;4903167;29;20060;-76
2022/05/17 17:38:11;;;;;;;6.22;1.45;;;21.70;63.30;;;;;;4902741;29;20450;-75
2022/05/17 17:40:37;;;;;;;5.78;1.40;;;21.60;63.30;;;;;;4903052;29;20064;-76
2022/05/17 17:43:04;;;;;;;7.78;1.77;;;21.60;63.20;;;;;;4902388;29;20096;-76
2022/05/17 17:45:31;;;;;;;6.10;1.73;;;21.60;63.60;;;;;;4901501;29;20044;-76
2022/05/17 17:47:58;;;;;;;5.18;1.40;;;21.60;63.60;;;;;;4886197;29;20164;-76
2022/05/17 17:50:26;;;;;;;7.78;1.50;;;21.60;63.80;;;;;;4902150;29;20049;-76
2022/05/17 17:52:53;;;;;;;6.10;0.90;;;21.60;63.90;;;;;;4902184;29;20148;-75
2022/05/17 17:55:19;;;;;;;10.35;2.35;;;21.60;64.10;;;;;;4901227;29;20052;-75
2022/05/17 17:57:45;;;;;;;7.97;1.52;;;21.50;64.20;;;;;;4902237;29;20056;-75
2022/05/17 18:00:13;;;;;;;14.77;1.17;;;21.50;64.50;;;;;;4902164;29;20147;-75
2022/05/17 18:02:39;;;;;;;6.20;1.63;;;21.50;64.60;;;;;;4902402;29;20051;-75
2022/05/17 18:05:08;;;;;;;8.05;1.63;;;21.50;64.80;;;;;;4902311;29;20049;-75
2022/05/17 18:07:33;;;;;;;9.75;1.95;;;21.50;64.90;;;;;;4902300;29;20513;-75
2022/05/17 18:10:00;;;;;;;7.63;2.00;;;21.50;65.00;;;;;;4902048;29;20056;-75
2022/05/17 18:12:27;;;;;;;7.40;1.35;;;21.50;65.10;;;;;;4901887;29;20041;-75
2022/05/17 18:14:58;;;;;;;4.43;1.17;;;21.50;65.10;;;;;;4885577;29;20056;-75
2022/05/17 18:17:32;;;;;;;6.57;1.65;;;21.50;65.10;;;;;;4902642;29;20071;-76
2022/05/17 18:19:58;;;;;;;7.15;1.67;;;21.50;65.10;;;;;;4901297;29;20377;-76
2022/05/17 18:22:23;;;;;;;4.57;0.90;;;21.60;65.00;;;;;;4901842;29;20060;-76
2022/05/17 18:24:49;;;;;;;5.25;1.40;;;21.50;64.90;;;;;;4901676;29;20112;-75
2022/05/17 18:27:15;;;;;;;10.18;1.58;;;21.50;64.90;;;;;;4901704;29;20064;-76
2022/05/17 18:29:47;;;;;;;6.53;1.15;;;21.50;64.70;;;;;;4901776;29;20064;-77
2022/05/17 18:32:28;;;;;;;6.75;1.35;;;21.50;64.60;;;;;;4901707;29;20132;-76
2022/05/17 18:34:54;;;;;;;5.55;1.20;;;21.60;64.60;;;;;;4901964;29;20048;-77
2022/05/17 18:37:25;;;;;;;5.07;1.42;;;21.50;64.50;;;;;;4901967;29;20382;-76
2022/05/17 18:39:51;;;;;;;5.50;1.00;;;21.50;64.40;;;;;;4901359;29;20469;-76
2022/05/17 18:42:19;;;;;;;4.53;1.23;;;21.50;64.10;;;;;;4901393;29;20431;-77
2022/05/17 18:44:45;;;;;;;4.75;1.23;;;21.50;64.30;;;;;;4900565;29;20111;-79
2022/05/17 18:47:14;;;;;;;3.38;1.00;;;21.50;64.50;;;;;;4900016;29;20476;-79
2022/05/17 18:49:42;;;;;;;5.63;1.92;;;21.50;64.50;;;;;;4900617;29;20052;-78
2022/05/17 18:52:32;;;;;;;4.55;1.00;;;21.50;64.50;;;;;;4901154;29;20377;-79
2022/05/17 18:55:01;;;;;;;4.40;1.77;;;21.50;64.30;;;;;;4898591;29;20377;-79
2022/05/17 18:57:28;;;;;;;4.35;1.02;;;21.50;64.30;;;;;;4901291;29;20147;-82
2022/05/17 18:59:55;;;;;;;4.63;1.20;;;21.50;64.30;;;;;;4900892;29;20048;-79
2022/05/17 19:02:25;;;;;;;6.25;1.38;;;21.40;64.00;;;;;;4900969;29;20052;-79
2022/05/17 19:04:52;;;;;;;8.50;2.00;;;21.40;63.80;;;;;;4900751;29;20044;-78
2022/05/17 19:15:32;;;;;;;6.65;2.00;;;21.20;63.90;;;;;;4900830;29;20060;-81
2022/05/17 19:17:59;;;;;;;10.75;1.65;;;21.10;64.00;;;;;;4901037;29;20079;-78
2022/05/17 19:20:26;;;;;;;4.88;1.20;;;21.10;64.20;;;;;;4900809;29;20060;-79
2022/05/17 19:22:56;;;;;;;6.22;1.83;;;21.00;64.30;;;;;;4900609;29;20056;-78
2022/05/17 19:25:21;;;;;;;6.65;1.80;;;21.00;64.40;;;;;;4884058;29;20045;-80
2022/05/17 19:27:47;;;;;;;6.63;1.45;;;20.90;64.60;;;;;;4883999;29;20480;-77
2022/05/17 19:30:13;;;;;;;3.90;1.52;;;20.90;64.70;;;;;;4900495;29;20056;-77
2022/05/17 19:32:40;;;;;;;7.53;2.10;;;20.90;64.80;;;;;;4900877;29;20518;-77
2022/05/17 19:35:19;;;;;;;6.35;1.90;;;20.90;64.90;;;;;;4884275;29;20053;-77
2022/05/17 19:51:46;;;;;;;7.95;1.63;;;20.70;65.40;;;;;;4898153;29;20092;-85
2022/05/17 19:54:13;;;;;;;7.05;1.90;;;20.80;65.60;;;;;;4877518;29;20134;-83
2022/05/17 20:20:43;;;;;;;6.35;1.48;;;20.60;65.10;;;;;;5016818;23;20056;-78
2022/05/17 20:23:14;;;;;;;4.90;1.52;;;20.50;65.20;;;;;;4884061;29;20041;-79
2022/05/17 20:25:44;;;;;;;5.20;1.77;;;20.60;65.40;;;;;;4869747;29;20377;-73
2022/05/17 20:28:12;;;;;;;8.73;1.70;;;20.60;65.50;;;;;;4895696;29;20040;-80
2022/05/17 20:30:42;;;;;;;6.32;1.33;;;20.60;65.50;;;;;;4882627;29;20465;-82
2022/05/17 20:33:17;;;;;;;5.72;1.60;;;20.60;65.50;;;;;;4867458;29;20056;-85
2022/05/17 20:35:45;;;;;;;4.75;1.17;;;20.60;65.60;;;;;;4883433;29;20037;-84
2022/05/17 20:38:12;;;;;;;5.47;1.60;;;20.60;65.50;;;;;;4899650;29;20040;-83
2022/05/17 20:40:39;;;;;;;4.13;1.20;;;20.60;65.40;;;;;;4883807;29;20036;-85
2022/05/17 20:43:05;;;;;;;8.07;1.70;;;20.50;65.50;;;;;;4867997;29;20127;-86
2022/05/17 20:45:37;;;;;;;5.25;1.85;;;20.40;65.40;;;;;;4868296;29;20101;-84
2022/05/17 20:48:18;;;;;;;5.63;1.60;;;20.50;65.60;;;;;;4882965;29;20131;-83
2022/05/17 20:50:44;;;;;;;6.72;1.90;;;20.40;65.60;;;;;;4898439;29;20044;-80
2022/05/17 20:53:10;;;;;;;5.97;1.73;;;20.40;65.80;;;;;;4899050;29;20066;-79
2022/05/17 20:55:40;;;;;;;5.55;1.65;;;20.40;65.90;;;;;;4899146;29;20055;-85
2022/05/17 20:58:18;;;;;;;6.47;1.73;;;20.40;65.90;;;;;;4882254;29;20116;-83
2022/05/17 21:00:45;;;;;;;8.40;2.03;;;20.40;65.90;;;;;;4899000;29;20087;-79
2022/05/17 21:03:11;;;;;;;8.45;2.33;;;20.50;66.10;;;;;;4882596;29;20067;-79
2022/05/17 21:05:37;;;;;;;8.73;2.10;;;20.50;66.30;;;;;;4898960;29;20045;-79
2022/05/17 21:08:08;;;;;;;10.30;2.28;;;20.50;66.30;;;;;;4898981;29;20037;-77
2022/05/17 21:10:35;;;;;;;6.28;1.92;;;20.50;66.70;;;;;;4899070;29;20051;-80
2022/05/17 21:13:01;;;;;;;7.07;2.08;;;20.50;66.40;;;;;;4882076;29;20431;-77
2022/05/17 21:15:30;;;;;;;8.15;1.85;;;20.50;66.30;;;;;;4898709;29;20096;-79
2022/05/17 21:17:59;;;;;;;6.40;2.08;;;20.50;66.40;;;;;;4882429;29;20116;-76
